Austin Straubel International Airport Green Bay US
ICAO: KGRB
IATA: GRB
Category: Large
Scheduled Services: Yes

Elevation: 695 ft
TransAlt. 18000 ft.

Airport Communications:
GREEN BAY APP:119.4
ATIS:124.1
CLNC DEL:121.75
CTAF:118.7
GREEN BAY DEP:126.55
GND:121.9
GREEN BAY RDO:122.2
GREEN BAY TWR:118.7
UNICOM:122.95

KGRB Zoom In..

If you have problems with the map follow the link
https://www.worldairports.se/pages/airport.php?
ICAO=KGRB

Runways:

(A) RW 06 length 7699 ft width 150 ft
ILS 109.50 / hdg 62

(B) RW 18 length 8699 ft width 150 ft
---- / hdg 182

(C) RW 24 length 7699 ft width 150 ft
---- / hdg 242

(D) RW 36 length 8699 ft width 150 ft
ILS 109.90 / hdg 2

Location; KGRB
Day. 20 / Time. 20.53 Zulu
* Altimeter: 29.67
* Temperature: -01° c. -30.2°f.
* Wind from: 090° Speed 08 kn.
Dewpoint: -03° c.
Visibility: 1/2 Statute Miles.
Clouds: Few 600 ft.
Clouds: Overcast 1000 ft.
Conditions: Light Snow.Conditions: Freezing fog.

KGRB 202053Z 09008KT 1/2SM -SN FZFG FEW006 OVC010 M01/M03 A2967 RMK AO2 SLP056 P0004 60009 T10061028 56056 RVRNO


Wind From 090°
Speed 08 kn.

 
 
jpsmedia.com for Web Design worldairports.se 2019   terms of use